地図

経路データ

SID SEASON NUMBER BASIN SUBBASIN NAME ISO_TIME NATURE LAT LON WMO_WIND WMO_PRES WMO_AGENCY TRACK_TYPE DIST2LAND LANDFALL IFLAG USA_AGENCY USA_ATCF_ID USA_LAT USA_LON USA_RECORD USA_STATUS USA_WIND USA_PRES USA_SSHS USA_R34_NE USA_R34_SE USA_R34_SW USA_R34_NW USA_R50_NE USA_R50_SE USA_R50_SW USA_R50_NW USA_R64_NE USA_R64_SE USA_R64_SW USA_R64_NW USA_POCI USA_ROCI USA_RMW USA_EYE TOKYO_LAT TOKYO_LON TOKYO_GRADE TOKYO_WIND TOKYO_PRES TOKYO_R50_DIR TOKYO_R50_LONG TOKYO_R50_SHORT TOKYO_R30_DIR TOKYO_R30_LONG TOKYO_R30_SHORT TOKYO_LAND CMA_LAT CMA_LON CMA_CAT CMA_WIND CMA_PRES HKO_LAT HKO_LON HKO_CAT HKO_WIND HKO_PRES NEWDELHI_LAT NEWDELHI_LON NEWDELHI_GRADE NEWDELHI_WIND NEWDELHI_PRES NEWDELHI_CI NEWDELHI_DP NEWDELHI_POCI REUNION_LAT REUNION_LON REUNION_TYPE REUNION_WIND REUNION_PRES REUNION_TNUM REUNION_CI REUNION_RMW REUNION_R34_NE REUNION_R34_SE REUNION_R34_SW REUNION_R34_NW REUNION_R50_NE REUNION_R50_SE REUNION_R50_SW REUNION_R50_NW REUNION_R64_NE REUNION_R64_SE REUNION_R64_SW REUNION_R64_NW BOM_LAT BOM_LON BOM_TYPE BOM_WIND BOM_PRES BOM_TNUM BOM_CI BOM_RMW BOM_R34_NE BOM_R34_SE BOM_R34_SW BOM_R34_NW BOM_R50_NE BOM_R50_SE BOM_R50_SW BOM_R50_NW BOM_R64_NE BOM_R64_SE BOM_R64_SW BOM_R64_NW BOM_ROCI BOM_POCI BOM_EYE BOM_POS_METHOD BOM_PRES_METHOD NADI_LAT NADI_LON NADI_CAT NADI_WIND NADI_PRES WELLINGTON_LAT WELLINGTON_LON WELLINGTON_WIND WELLINGTON_PRES DS824_LAT DS824_LON DS824_STAGE DS824_WIND DS824_PRES TD9636_LAT TD9636_LON TD9636_STAGE TD9636_WIND TD9636_PRES TD9635_LAT TD9635_LON TD9635_WIND TD9635_PRES TD9635_ROCI NEUMANN_LAT NEUMANN_LON NEUMANN_CLASS NEUMANN_WIND NEUMANN_PRES MLC_LAT MLC_LON MLC_CLASS MLC_WIND MLC_PRES USA_GUST BOM_GUST BOM_GUST_PER REUNION_GUST REUNION_GUST_PER USA_SEAHGT USA_SEARAD_NE USA_SEARAD_SE USA_SEARAD_SW USA_SEARAD_NW STORM_SPEED STORM_DIR
1927225N16129 1927 37 WP MM NOT_NAMED 1927-08-13 10:00:00 NR 16.2000 129.000 main 557 524 __________O___ -1 16.2000 129.000 7 11 285
1927225N16129 1927 37 WP MM NOT_NAMED 1927-08-13 12:00:00 NR 16.2923 128.643 main 524 485 __________P___ -1 16.2923 128.643 7 11 285
1927225N16129 1927 37 WP MM NOT_NAMED 1927-08-13 15:00:00 NR 16.4330 128.117 main 485 457 __________P___ -1 16.4330 128.117 7 10 286
1927225N16129 1927 37 WP MM NOT_NAMED 1927-08-13 18:00:00 NR 16.5812 127.613 main 457 426 __________P___ -1 16.5812 127.613 7 10 288
1927225N16129 1927 37 WP MM NOT_NAMED 1927-08-13 21:00:00 NR 16.7424 127.145 main 426 426 __________P___ -1 16.7424 127.145 7 9 290
1927225N16129 1927 37 WP MM NOT_NAMED 1927-08-13 22:00:00 NR 16.8000 127.000 main 426 414 __________O___ -1 16.8000 127.000 3 9 294
1927225N16129 1927 37 WP MM NOT_NAMED 1927-08-14 00:00:00 NR 16.9221 126.728 main 414 410 __________P___ -1 16.9221 126.728 3 8 298
1927225N16129 1927 37 WP MM NOT_NAMED 1927-08-14 03:00:00 NR 17.1242 126.363 main 413 374 __________P___ -1 17.1242 126.363 3 8 303
1927225N16129 1927 37 WP MM NOT_NAMED 1927-08-14 06:00:00 NR 17.3518 126.048 main 374 354 __________P___ -1 17.3518 126.048 3 7 311
1927225N16129 1927 37 WP MM NOT_NAMED 1927-08-14 09:00:00 NR 17.6078 125.780 main 356 348 __________P___ -1 17.6078 125.780 3 7 317
1927225N16129 1927 37 WP MM NOT_NAMED 1927-08-14 10:00:00 NR 17.7000 125.700 main 348 340 __________O___ -1 17.7000 125.700 4 7 324
1927225N16129 1927 37 WP MM NOT_NAMED 1927-08-14 12:00:00 NR 17.8856 125.564 main 343 327 __________P___ -1 17.8856 125.564 4 7 330
1927225N16129 1927 37 WP MM NOT_NAMED 1927-08-14 15:00:00 NR 18.1893 125.399 main 327 306 __________P___ -1 18.1893 125.399 4 7 335
1927225N16129 1927 37 WP MM NOT_NAMED 1927-08-14 18:00:00 NR 18.5206 125.247 main 306 297 __________P___ -1 18.5206 125.247 4 8 336
1927225N16129 1927 37 WP MM NOT_NAMED 1927-08-14 21:00:00 NR 18.8765 125.071 main 300 289 __________P___ -1 18.8765 125.071 4 8 334
1927225N16129 1927 37 WP MM NOT_NAMED 1927-08-14 22:00:00 NR 19.0000 125.000 main 292 277 __________O___ -1 19.0000 125.000 4 9 329
1927225N16129 1927 37 WP MM NOT_NAMED 1927-08-15 00:00:00 NR 19.2416 124.833 main 277 267 __________P___ -1 19.2416 124.833 4 9 325
1927225N16129 1927 37 WP MM NOT_NAMED 1927-08-15 03:00:00 NR 19.6226 124.545 main 267 267 __________P___ -1 19.6226 124.545 4 10 323
1927225N16129 1927 37 WP MM NOT_NAMED 1927-08-15 06:00:00 NR 20.0263 124.212 main 268 268 __________P___ -1 20.0263 124.212 4 11 321
1927225N16129 1927 37 WP MM NOT_NAMED 1927-08-15 09:00:00 NR 20.4528 123.835 main 282 276 __________P___ -1 20.4528 123.835 4 11 320
1927225N16129 1927 37 WP MM NOT_NAMED 1927-08-15 10:00:00 NR 20.6000 123.700 main 286 281 __________O___ -1 20.6000 123.700 4 12 321
1927225N16129 1927 37 WP MM NOT_NAMED 1927-08-15 12:00:00 NR 20.9229 123.431 main 281 224 __________P___ -1 20.9229 123.431 4 13 321
1927225N16129 1927 37 WP MM NOT_NAMED 1927-08-15 15:00:00 NR 21.4268 122.990 main 224 165 __________P___ -1 21.4268 122.990 4 13 319
1927225N16129 1927 37 WP MM NOT_NAMED 1927-08-15 18:00:00 NR 21.9209 122.506 main 165 98 __________P___ -1 21.9209 122.506 4 13 315
1927225N16129 1927 37 WP MM NOT_NAMED 1927-08-15 21:00:00 NR 22.3679 121.983 main 98 75 __________P___ -1 22.3679 121.983 4 13 312
1927225N16129 1927 37 WP MM NOT_NAMED 1927-08-15 22:00:00 NR 22.5000 121.800 main 75 30 __________O___ -1 22.5000 121.800 4 12 306
1927225N16129 1927 37 WP MM NOT_NAMED 1927-08-16 00:00:00 NR 22.7305 121.449 main 30 0 __________P___ -1 22.7305 121.449 4 12 302
1927225N16129 1927 37 WP MM NOT_NAMED 1927-08-16 03:00:00 NR 23.0199 120.891 main 0 0 __________P___ -1 23.0199 120.891 4 12 296
1927225N16129 1927 37 WP MM NOT_NAMED 1927-08-16 06:00:00 NR 23.2534 120.289 main 0 0 __________P___ -1 23.2534 120.289 4 12 290
1927225N16129 1927 37 WP MM NOT_NAMED 1927-08-16 09:00:00 NR 23.4439 119.633 main 55 52 __________P___ -1 23.4439 119.633 4 13 287
1927225N16129 1927 37 WP MM NOT_NAMED 1927-08-16 10:00:00 NR 23.5000 119.400 main 72 72 __________O___ -1 23.5000 119.400 4 14 284
1927225N16129 1927 37 WP MM NOT_NAMED 1927-08-16 12:00:00 NR 23.6036 118.913 main 105 37 __________P___ -1 23.6036 118.913 4 14 282
1927225N16129 1927 37 WP MM NOT_NAMED 1927-08-16 15:00:00 NR 23.7405 118.137 main 37 0 __________P___ -1 23.7405 118.137 4 15 280
1927225N16129 1927 37 WP MM NOT_NAMED 1927-08-16 18:00:00 NR 23.8595 117.321 main 0 0 __________P___ -1 23.8595 117.321 4 15 278
1927225N16129 1927 37 WP MM NOT_NAMED 1927-08-16 21:00:00 NR 23.9662 116.482 main 0 0 __________P___ -1 23.9662 116.482 4 16 278
1927225N16129 1927 37 WP MM NOT_NAMED 1927-08-16 22:00:00 NR 24.0000 116.200 main 0 __________O___ -1 24.0000 116.200 7 16 277

デジタル台風データ・検索

IBTrACS Databaseについて

本データベースは、米国NOAAが公開する1842年以降の世界の熱帯低気圧のベストトラックデータアーカイブInternational Best Track Archive for Climate Stewardship (IBTrACS)を、ウェブで閲覧しやすい形式に変換したものです。

最終更新日:2021-10-21